sensor_id;sensor_type;location;lat;lon;timestamp;P1;durP1;ratioP1;P2;durP2;ratioP2
3329;SDS011;1677;49.576;10.990;2023-03-14T00:01:22;2.87;;;0.80;;
3329;SDS011;1677;49.576;10.990;2023-03-14T00:03:49;1.73;;;1.00;;
3329;SDS011;1677;49.576;10.990;2023-03-14T00:06:15;1.15;;;0.70;;
3329;SDS011;1677;49.576;10.990;2023-03-14T00:08:42;1.90;;;0.90;;
3329;SDS011;1677;49.576;10.990;2023-03-14T00:11:09;2.22;;;0.88;;
3329;SDS011;1677;49.576;10.990;2023-03-14T00:13:40;2.72;;;0.90;;
3329;SDS011;1677;49.576;10.990;2023-03-14T00:16:07;0.90;;;0.70;;
3329;SDS011;1677;49.576;10.990;2023-03-14T00:18:35;0.90;;;0.70;;
3329;SDS011;1677;49.576;10.990;2023-03-14T00:21:01;1.30;;;0.90;;
3329;SDS011;1677;49.576;10.990;2023-03-14T00:23:28;0.80;;;0.73;;
3329;SDS011;1677;49.576;10.990;2023-03-14T00:25:59;2.55;;;0.93;;
3329;SDS011;1677;49.576;10.990;2023-03-14T00:28:26;1.38;;;0.80;;
3329;SDS011;1677;49.576;10.990;2023-03-14T00:30:52;1.50;;;0.82;;
3329;SDS011;1677;49.576;10.990;2023-03-14T00:33:17;0.90;;;0.70;;
3329;SDS011;1677;49.576;10.990;2023-03-14T00:35:43;1.93;;;0.80;;
3329;SDS011;1677;49.576;10.990;2023-03-14T00:38:08;0.80;;;0.60;;
3329;SDS011;1677;49.576;10.990;2023-03-14T00:40:34;1.00;;;0.80;;
3329;SDS011;1677;49.576;10.990;2023-03-14T00:43:04;1.65;;;0.82;;
3329;SDS011;1677;49.576;10.990;2023-03-14T00:45:30;1.00;;;0.67;;
3329;SDS011;1677;49.576;10.990;2023-03-14T00:47:55;1.67;;;0.93;;
3329;SDS011;1677;49.576;10.990;2023-03-14T00:50:21;2.03;;;0.80;;
3329;SDS011;1677;49.576;10.990;2023-03-14T00:52:46;2.00;;;0.80;;
3329;SDS011;1677;49.576;10.990;2023-03-14T00:55:13;0.90;;;0.70;;
3329;SDS011;1677;49.576;10.990;2023-03-14T00:57:39;0.80;;;0.70;;
3329;SDS011;1677;49.576;10.990;2023-03-14T01:00:05;1.00;;;0.90;;
3329;SDS011;1677;49.576;10.990;2023-03-14T01:02:32;2.55;;;0.90;;
3329;SDS011;1677;49.576;10.990;2023-03-14T01:04:58;0.80;;;0.60;;
3329;SDS011;1677;49.576;10.990;2023-03-14T01:07:24;0.80;;;0.70;;
3329;SDS011;1677;49.576;10.990;2023-03-14T01:09:51;1.10;;;0.63;;
3329;SDS011;1677;49.576;10.990;2023-03-14T01:12:17;2.08;;;0.70;;
3329;SDS011;1677;49.576;10.990;2023-03-14T01:14:43;1.23;;;0.77;;
3329;SDS011;1677;49.576;10.990;2023-03-14T01:17:08;1.17;;;0.60;;
3329;SDS011;1677;49.576;10.990;2023-03-14T01:19:34;0.70;;;0.50;;
3329;SDS011;1677;49.576;10.990;2023-03-14T01:21:59;0.90;;;0.70;;
3329;SDS011;1677;49.576;10.990;2023-03-14T01:24:25;0.70;;;0.60;;
3329;SDS011;1677;49.576;10.990;2023-03-14T01:26:50;1.13;;;0.60;;
3329;SDS011;1677;49.576;10.990;2023-03-14T01:29:16;0.80;;;0.57;;
3329;SDS011;1677;49.576;10.990;2023-03-14T01:31:41;0.70;;;0.60;;
3329;SDS011;1677;49.576;10.990;2023-03-14T01:34:07;0.70;;;0.50;;
3329;SDS011;1677;49.576;10.990;2023-03-14T01:36:33;0.80;;;0.60;;
3329;SDS011;1677;49.576;10.990;2023-03-14T01:38:58;1.00;;;0.70;;
3329;SDS011;1677;49.576;10.990;2023-03-14T01:41:24;0.80;;;0.60;;
3329;SDS011;1677;49.576;10.990;2023-03-14T01:43:51;0.80;;;0.60;;
3329;SDS011;1677;49.576;10.990;2023-03-14T01:46:18;0.90;;;0.60;;
3329;SDS011;1677;49.576;10.990;2023-03-14T01:48:53;0.95;;;0.57;;
3329;SDS011;1677;49.576;10.990;2023-03-14T01:54:14;2.10;;;0.70;;
3329;SDS011;1677;49.576;10.990;2023-03-14T01:56:48;1.50;;;0.50;;
3329;SDS011;1677;49.576;10.990;2023-03-14T01:59:18;0.93;;;0.60;;
3329;SDS011;1677;49.576;10.990;2023-03-14T02:01:44;0.80;;;0.60;;
3329;SDS011;1677;49.576;10.990;2023-03-14T02:04:12;1.20;;;1.00;;
3329;SDS011;1677;49.576;10.990;2023-03-14T02:06:43;0.80;;;0.55;;
3329;SDS011;1677;49.576;10.990;2023-03-14T02:09:25;0.80;;;0.60;;
3329;SDS011;1677;49.576;10.990;2023-03-14T02:11:51;1.10;;;0.80;;
3329;SDS011;1677;49.576;10.990;2023-03-14T02:14:21;0.90;;;0.60;;
3329;SDS011;1677;49.576;10.990;2023-03-14T02:16:53;0.82;;;0.60;;
3329;SDS011;1677;49.576;10.990;2023-03-14T02:19:20;1.57;;;0.70;;
3329;SDS011;1677;49.576;10.990;2023-03-14T02:22:07;1.15;;;0.68;;
3329;SDS011;1677;49.576;10.990;2023-03-14T02:24:44;1.38;;;0.90;;
3329;SDS011;1677;49.576;10.990;2023-03-14T02:27:11;0.90;;;0.60;;
3329;SDS011;1677;49.576;10.990;2023-03-14T02:29:40;0.93;;;0.82;;
3329;SDS011;1677;49.576;10.990;2023-03-14T02:32:11;1.13;;;0.70;;
3329;SDS011;1677;49.576;10.990;2023-03-14T02:34:39;1.45;;;0.70;;
3329;SDS011;1677;49.576;10.990;2023-03-14T02:37:07;1.05;;;0.70;;
3329;SDS011;1677;49.576;10.990;2023-03-14T02:39:38;1.00;;;0.93;;
3329;SDS011;1677;49.576;10.990;2023-03-14T02:42:06;0.82;;;0.63;;
3329;SDS011;1677;49.576;10.990;2023-03-14T02:44:32;1.33;;;0.70;;
3329;SDS011;1677;49.576;10.990;2023-03-14T02:46:58;1.17;;;0.70;;
3329;SDS011;1677;49.576;10.990;2023-03-14T02:49:23;0.90;;;0.80;;
3329;SDS011;1677;49.576;10.990;2023-03-14T02:51:52;1.92;;;0.70;;
3329;SDS011;1677;49.576;10.990;2023-03-14T02:54:17;1.30;;;0.67;;
3329;SDS011;1677;49.576;10.990;2023-03-14T02:56:45;0.98;;;0.70;;
3329;SDS011;1677;49.576;10.990;2023-03-14T02:59:10;0.80;;;0.70;;
3329;SDS011;1677;49.576;10.990;2023-03-14T03:01:36;0.80;;;0.60;;
3329;SDS011;1677;49.576;10.990;2023-03-14T03:04:02;1.20;;;0.70;;
3329;SDS011;1677;49.576;10.990;2023-03-14T03:06:27;0.80;;;0.60;;
3329;SDS011;1677;49.576;10.990;2023-03-14T03:08:53;1.73;;;0.90;;
3329;SDS011;1677;49.576;10.990;2023-03-14T03:11:18;1.10;;;0.80;;
3329;SDS011;1677;49.576;10.990;2023-03-14T03:13:44;0.90;;;0.60;;
3329;SDS011;1677;49.576;10.990;2023-03-14T03:16:10;1.00;;;0.60;;
3329;SDS011;1677;49.576;10.990;2023-03-14T03:18:38;1.10;;;0.85;;
3329;SDS011;1677;49.576;10.990;2023-03-14T03:21:04;1.50;;;0.73;;
3329;SDS011;1677;49.576;10.990;2023-03-14T03:23:31;1.15;;;0.60;;
3329;SDS011;1677;49.576;10.990;2023-03-14T03:25:56;6.03;;;0.73;;
3329;SDS011;1677;49.576;10.990;2023-03-14T03:28:22;1.47;;;0.70;;
3329;SDS011;1677;49.576;10.990;2023-03-14T03:30:47;1.00;;;0.70;;
3329;SDS011;1677;49.576;10.990;2023-03-14T03:33:13;0.90;;;0.80;;
3329;SDS011;1677;49.576;10.990;2023-03-14T03:35:43;0.80;;;0.63;;
3329;SDS011;1677;49.576;10.990;2023-03-14T03:38:09;1.20;;;0.75;;
3329;SDS011;1677;49.576;10.990;2023-03-14T03:40:36;1.20;;;0.70;;
3329;SDS011;1677;49.576;10.990;2023-03-14T03:43:02;0.80;;;0.80;;
3329;SDS011;1677;49.576;10.990;2023-03-14T03:45:28;0.80;;;0.60;;
3329;SDS011;1677;49.576;10.990;2023-03-14T03:47:54;1.07;;;0.87;;
3329;SDS011;1677;49.576;10.990;2023-03-14T03:50:20;0.80;;;0.60;;
3329;SDS011;1677;49.576;10.990;2023-03-14T03:52:45;0.90;;;0.60;;
3329;SDS011;1677;49.576;10.990;2023-03-14T03:55:11;1.50;;;0.80;;
3329;SDS011;1677;49.576;10.990;2023-03-14T03:57:36;2.70;;;0.80;;
3329;SDS011;1677;49.576;10.990;2023-03-14T04:00:02;0.70;;;0.60;;
3329;SDS011;1677;49.576;10.990;2023-03-14T04:02:30;1.65;;;0.73;;
3329;SDS011;1677;49.576;10.990;2023-03-14T04:04:55;1.10;;;0.77;;
3329;SDS011;1677;49.576;10.990;2023-03-14T04:07:21;1.30;;;0.63;;
3329;SDS011;1677;49.576;10.990;2023-03-14T04:09:47;0.80;;;0.60;;
3329;SDS011;1677;49.576;10.990;2023-03-14T04:12:12;0.80;;;0.70;;
3329;SDS011;1677;49.576;10.990;2023-03-14T04:14:38;0.80;;;0.60;;
3329;SDS011;1677;49.576;10.990;2023-03-14T04:17:05;1.15;;;0.70;;
3329;SDS011;1677;49.576;10.990;2023-03-14T04:19:31;0.80;;;0.70;;
3329;SDS011;1677;49.576;10.990;2023-03-14T04:21:57;0.80;;;0.60;;
3329;SDS011;1677;49.576;10.990;2023-03-14T04:24:23;1.20;;;0.70;;
3329;SDS011;1677;49.576;10.990;2023-03-14T04:26:48;1.07;;;0.80;;
3329;SDS011;1677;49.576;10.990;2023-03-14T04:29:14;0.90;;;0.80;;
3329;SDS011;1677;49.576;10.990;2023-03-14T04:31:39;0.97;;;0.70;;
3329;SDS011;1677;49.576;10.990;2023-03-14T04:34:05;1.47;;;0.80;;
3329;SDS011;1677;49.576;10.990;2023-03-14T04:36:30;1.87;;;0.80;;
3329;SDS011;1677;49.576;10.990;2023-03-14T04:38:56;0.80;;;0.70;;
3329;SDS011;1677;49.576;10.990;2023-03-14T04:41:22;1.27;;;0.87;;
3329;SDS011;1677;49.576;10.990;2023-03-14T04:43:47;2.20;;;0.87;;
3329;SDS011;1677;49.576;10.990;2023-03-14T04:46:13;1.27;;;0.90;;
3329;SDS011;1677;49.576;10.990;2023-03-14T04:48:38;0.80;;;0.70;;
3329;SDS011;1677;49.576;10.990;2023-03-14T04:51:04;1.40;;;0.90;;
3329;SDS011;1677;49.576;10.990;2023-03-14T04:53:30;1.10;;;0.82;;
3329;SDS011;1677;49.576;10.990;2023-03-14T04:55:56;1.00;;;0.67;;
3329;SDS011;1677;49.576;10.990;2023-03-14T04:58:22;2.23;;;0.70;;
3329;SDS011;1677;49.576;10.990;2023-03-14T05:01:00;1.20;;;0.70;;
3329;SDS011;1677;49.576;10.990;2023-03-14T05:03:27;1.10;;;0.90;;
3329;SDS011;1677;49.576;10.990;2023-03-14T05:05:53;1.10;;;0.70;;
3329;SDS011;1677;49.576;10.990;2023-03-14T05:08:20;0.90;;;0.80;;
3329;SDS011;1677;49.576;10.990;2023-03-14T05:10:51;0.90;;;0.70;;
3329;SDS011;1677;49.576;10.990;2023-03-14T05:13:17;0.80;;;0.70;;
3329;SDS011;1677;49.576;10.990;2023-03-14T05:15:43;1.03;;;0.87;;
3329;SDS011;1677;49.576;10.990;2023-03-14T05:18:08;1.20;;;0.70;;
3329;SDS011;1677;49.576;10.990;2023-03-14T05:20:34;1.80;;;1.30;;
3329;SDS011;1677;49.576;10.990;2023-03-14T05:23:00;1.27;;;0.75;;
3329;SDS011;1677;49.576;10.990;2023-03-14T05:25:26;0.90;;;0.73;;
3329;SDS011;1677;49.576;10.990;2023-03-14T05:27:53;1.10;;;0.90;;
3329;SDS011;1677;49.576;10.990;2023-03-14T05:30:19;1.15;;;0.70;;
3329;SDS011;1677;49.576;10.990;2023-03-14T05:32:46;0.95;;;0.70;;
3329;SDS011;1677;49.576;10.990;2023-03-14T05:35:12;0.80;;;0.60;;
3329;SDS011;1677;49.576;10.990;2023-03-14T05:37:37;1.07;;;0.87;;
3329;SDS011;1677;49.576;10.990;2023-03-14T05:40:03;1.00;;;0.70;;
3329;SDS011;1677;49.576;10.990;2023-03-14T05:42:31;1.50;;;0.80;;
3329;SDS011;1677;49.576;10.990;2023-03-14T05:44:57;1.20;;;0.90;;
3329;SDS011;1677;49.576;10.990;2023-03-14T05:47:23;1.00;;;0.70;;
3329;SDS011;1677;49.576;10.990;2023-03-14T05:49:49;1.50;;;0.90;;
3329;SDS011;1677;49.576;10.990;2023-03-14T05:52:14;1.20;;;0.90;;
3329;SDS011;1677;49.576;10.990;2023-03-14T05:54:40;3.03;;;0.70;;
3329;SDS011;1677;49.576;10.990;2023-03-14T05:57:05;1.27;;;1.17;;
3329;SDS011;1677;49.576;10.990;2023-03-14T05:59:31;0.90;;;0.60;;
3329;SDS011;1677;49.576;10.990;2023-03-14T06:01:57;0.90;;;0.70;;
3329;SDS011;1677;49.576;10.990;2023-03-14T06:04:24;0.80;;;0.70;;
3329;SDS011;1677;49.576;10.990;2023-03-14T06:06:50;1.40;;;0.90;;
3329;SDS011;1677;49.576;10.990;2023-03-14T06:09:15;0.90;;;0.70;;
3329;SDS011;1677;49.576;10.990;2023-03-14T06:11:41;1.17;;;0.90;;
3329;SDS011;1677;49.576;10.990;2023-03-14T06:14:07;1.00;;;0.77;;
3329;SDS011;1677;49.576;10.990;2023-03-14T06:16:32;1.20;;;0.90;;
3329;SDS011;1677;49.576;10.990;2023-03-14T06:18:58;0.87;;;0.70;;
3329;SDS011;1677;49.576;10.990;2023-03-14T06:21:24;1.40;;;0.77;;
3329;SDS011;1677;49.576;10.990;2023-03-14T06:23:50;2.70;;;1.00;;
3329;SDS011;1677;49.576;10.990;2023-03-14T06:26:15;1.10;;;1.00;;
3329;SDS011;1677;49.576;10.990;2023-03-14T06:28:41;1.20;;;0.97;;
3329;SDS011;1677;49.576;10.990;2023-03-14T06:31:07;1.67;;;1.10;;
3329;SDS011;1677;49.576;10.990;2023-03-14T06:33:32;1.93;;;1.20;;
3329;SDS011;1677;49.576;10.990;2023-03-14T06:35:58;1.67;;;1.00;;
3329;SDS011;1677;49.576;10.990;2023-03-14T06:38:23;1.00;;;0.90;;
3329;SDS011;1677;49.576;10.990;2023-03-14T06:40:49;1.17;;;0.80;;
3329;SDS011;1677;49.576;10.990;2023-03-14T06:43:14;1.77;;;1.20;;
3329;SDS011;1677;49.576;10.990;2023-03-14T06:45:40;2.43;;;0.90;;
3329;SDS011;1677;49.576;10.990;2023-03-14T06:48:05;1.63;;;1.30;;
3329;SDS011;1677;49.576;10.990;2023-03-14T06:50:31;2.33;;;0.90;;
3329;SDS011;1677;49.576;10.990;2023-03-14T06:52:57;1.50;;;1.03;;
3329;SDS011;1677;49.576;10.990;2023-03-14T06:55:22;1.43;;;1.07;;
3329;SDS011;1677;49.576;10.990;2023-03-14T06:57:48;1.53;;;1.10;;
3329;SDS011;1677;49.576;10.990;2023-03-14T07:00:14;1.03;;;0.90;;
3329;SDS011;1677;49.576;10.990;2023-03-14T07:02:40;0.90;;;0.80;;
3329;SDS011;1677;49.576;10.990;2023-03-14T07:05:05;1.87;;;1.10;;
3329;SDS011;1677;49.576;10.990;2023-03-14T07:07:31;1.70;;;1.10;;
3329;SDS011;1677;49.576;10.990;2023-03-14T07:09:57;1.40;;;1.17;;
3329;SDS011;1677;49.576;10.990;2023-03-14T07:12:23;4.60;;;1.60;;
3329;SDS011;1677;49.576;10.990;2023-03-14T07:14:48;1.93;;;1.00;;
3329;SDS011;1677;49.576;10.990;2023-03-14T07:17:14;1.53;;;1.13;;
3329;SDS011;1677;49.576;10.990;2023-03-14T07:19:39;2.00;;;1.10;;
3329;SDS011;1677;49.576;10.990;2023-03-14T07:22:05;12.27;;;1.45;;
3329;SDS011;1677;49.576;10.990;2023-03-14T07:24:31;2.03;;;1.70;;
3329;SDS011;1677;49.576;10.990;2023-03-14T07:26:56;2.20;;;1.10;;
3329;SDS011;1677;49.576;10.990;2023-03-14T07:29:22;4.33;;;1.20;;
3329;SDS011;1677;49.576;10.990;2023-03-14T07:31:48;1.67;;;0.90;;
3329;SDS011;1677;49.576;10.990;2023-03-14T07:34:13;5.60;;;1.07;;
3329;SDS011;1677;49.576;10.990;2023-03-14T07:36:39;1.70;;;0.90;;
3329;SDS011;1677;49.576;10.990;2023-03-14T07:39:04;7.23;;;1.50;;
3329;SDS011;1677;49.576;10.990;2023-03-14T07:41:30;1.83;;;1.07;;
3329;SDS011;1677;49.576;10.990;2023-03-14T07:43:56;1.58;;;1.10;;
3329;SDS011;1677;49.576;10.990;2023-03-14T07:46:22;1.80;;;1.47;;
3329;SDS011;1677;49.576;10.990;2023-03-14T07:48:47;5.93;;;1.53;;
3329;SDS011;1677;49.576;10.990;2023-03-14T07:51:13;3.13;;;0.90;;
3329;SDS011;1677;49.576;10.990;2023-03-14T07:53:38;4.50;;;1.30;;
3329;SDS011;1677;49.576;10.990;2023-03-14T07:56:04;1.97;;;1.03;;
3329;SDS011;1677;49.576;10.990;2023-03-14T07:58:30;4.35;;;1.40;;
3329;SDS011;1677;49.576;10.990;2023-03-14T08:00:58;1.37;;;0.90;;
3329;SDS011;1677;49.576;10.990;2023-03-14T08:03:24;1.23;;;1.10;;
3329;SDS011;1677;49.576;10.990;2023-03-14T08:05:50;1.60;;;1.10;;
3329;SDS011;1677;49.576;10.990;2023-03-14T08:08:16;7.03;;;1.37;;
3329;SDS011;1677;49.576;10.990;2023-03-14T08:10:42;2.60;;;1.03;;
3329;SDS011;1677;49.576;10.990;2023-03-14T08:13:08;2.80;;;0.90;;
3329;SDS011;1677;49.576;10.990;2023-03-14T08:15:35;2.23;;;1.10;;
3329;SDS011;1677;49.576;10.990;2023-03-14T08:18:01;2.42;;;1.30;;
3329;SDS011;1677;49.576;10.990;2023-03-14T08:20:28;3.53;;;1.30;;
3329;SDS011;1677;49.576;10.990;2023-03-14T08:22:58;3.95;;;1.83;;
3329;SDS011;1677;49.576;10.990;2023-03-14T08:25:25;2.95;;;1.60;;
3329;SDS011;1677;49.576;10.990;2023-03-14T08:27:51;1.58;;;1.20;;
3329;SDS011;1677;49.576;10.990;2023-03-14T08:30:18;1.80;;;0.93;;
3329;SDS011;1677;49.576;10.990;2023-03-14T08:32:44;3.17;;;1.60;;
3329;SDS011;1677;49.576;10.990;2023-03-14T08:35:10;1.20;;;1.10;;
3329;SDS011;1677;49.576;10.990;2023-03-14T08:37:36;1.40;;;1.10;;
3329;SDS011;1677;49.576;10.990;2023-03-14T08:40:02;2.70;;;1.47;;
3329;SDS011;1677;49.576;10.990;2023-03-14T08:42:34;1.42;;;1.10;;
3329;SDS011;1677;49.576;10.990;2023-03-14T08:45:01;1.25;;;1.08;;
3329;SDS011;1677;49.576;10.990;2023-03-14T08:47:27;9.73;;;1.20;;
3329;SDS011;1677;49.576;10.990;2023-03-14T08:49:53;3.50;;;0.98;;
3329;SDS011;1677;49.576;10.990;2023-03-14T08:52:18;2.53;;;1.20;;
3329;SDS011;1677;49.576;10.990;2023-03-14T08:54:44;2.10;;;1.07;;
3329;SDS011;1677;49.576;10.990;2023-03-14T08:57:10;2.27;;;1.17;;
3329;SDS011;1677;49.576;10.990;2023-03-14T08:59:35;1.57;;;0.90;;
3329;SDS011;1677;49.576;10.990;2023-03-14T09:02:01;3.53;;;1.33;;
3329;SDS011;1677;49.576;10.990;2023-03-14T09:04:28;1.17;;;1.02;;
3329;SDS011;1677;49.576;10.990;2023-03-14T09:06:57;1.57;;;0.80;;
3329;SDS011;1677;49.576;10.990;2023-03-14T09:09:27;2.47;;;1.53;;
3329;SDS011;1677;49.576;10.990;2023-03-14T09:11:52;2.40;;;1.20;;
3329;SDS011;1677;49.576;10.990;2023-03-14T09:14:19;4.43;;;1.15;;
3329;SDS011;1677;49.576;10.990;2023-03-14T09:16:45;2.10;;;0.87;;
3329;SDS011;1677;49.576;10.990;2023-03-14T09:19:10;2.90;;;0.90;;
3329;SDS011;1677;49.576;10.990;2023-03-14T09:21:36;4.50;;;0.90;;
3329;SDS011;1677;49.576;10.990;2023-03-14T09:24:03;1.55;;;1.27;;
3329;SDS011;1677;49.576;10.990;2023-03-14T09:26:29;1.98;;;1.00;;
3329;SDS011;1677;49.576;10.990;2023-03-14T09:28:55;1.77;;;0.80;;
3329;SDS011;1677;49.576;10.990;2023-03-14T09:31:21;1.70;;;1.07;;
3329;SDS011;1677;49.576;10.990;2023-03-14T09:33:46;3.67;;;1.10;;
3329;SDS011;1677;49.576;10.990;2023-03-14T09:36:12;1.97;;;0.90;;
3329;SDS011;1677;49.576;10.990;2023-03-14T09:38:38;1.33;;;0.93;;
3329;SDS011;1677;49.576;10.990;2023-03-14T09:41:09;1.17;;;0.90;;
3329;SDS011;1677;49.576;10.990;2023-03-14T09:43:48;2.05;;;1.10;;
3329;SDS011;1677;49.576;10.990;2023-03-14T09:46:19;1.73;;;0.90;;
3329;SDS011;1677;49.576;10.990;2023-03-14T09:48:46;1.23;;;0.80;;
3329;SDS011;1677;49.576;10.990;2023-03-14T09:51:16;2.90;;;0.77;;
3329;SDS011;1677;49.576;10.990;2023-03-14T09:53:44;2.13;;;0.80;;
3329;SDS011;1677;49.576;10.990;2023-03-14T09:58:50;1.65;;;0.80;;
3329;SDS011;1677;49.576;10.990;2023-03-14T10:01:22;0.80;;;0.60;;
3329;SDS011;1677;49.576;10.990;2023-03-14T10:03:55;1.73;;;0.70;;
3329;SDS011;1677;49.576;10.990;2023-03-14T10:06:24;1.10;;;0.60;;
3329;SDS011;1677;49.576;10.990;2023-03-14T10:08:52;1.47;;;1.10;;
3329;SDS011;1677;49.576;10.990;2023-03-14T10:11:19;1.57;;;0.70;;
3329;SDS011;1677;49.576;10.990;2023-03-14T10:14:04;3.85;;;0.93;;
3329;SDS011;1677;49.576;10.990;2023-03-14T10:16:33;1.80;;;0.60;;
3329;SDS011;1677;49.576;10.990;2023-03-14T10:19:02;1.00;;;0.73;;
3329;SDS011;1677;49.576;10.990;2023-03-14T10:21:29;0.90;;;0.60;;
3329;SDS011;1677;49.576;10.990;2023-03-14T10:27:00;1.80;;;0.80;;
3329;SDS011;1677;49.576;10.990;2023-03-14T10:29:29;1.67;;;0.73;;
3329;SDS011;1677;49.576;10.990;2023-03-14T10:31:59;2.73;;;0.80;;
3329;SDS011;1677;49.576;10.990;2023-03-14T10:34:31;1.17;;;0.77;;
3329;SDS011;1677;49.576;10.990;2023-03-14T10:37:05;0.87;;;0.70;;
3329;SDS011;1677;49.576;10.990;2023-03-14T10:39:46;1.67;;;0.80;;
3329;SDS011;1677;49.576;10.990;2023-03-14T10:42:28;1.10;;;0.70;;
3329;SDS011;1677;49.576;10.990;2023-03-14T10:45:00;1.33;;;0.70;;
3329;SDS011;1677;49.576;10.990;2023-03-14T10:47:32;1.03;;;0.93;;
3329;SDS011;1677;49.576;10.990;2023-03-14T10:50:19;0.80;;;0.63;;
3329;SDS011;1677;49.576;10.990;2023-03-14T10:52:52;2.30;;;0.83;;
3329;SDS011;1677;49.576;10.990;2023-03-14T10:55:19;3.07;;;1.10;;
3329;SDS011;1677;49.576;10.990;2023-03-14T10:57:45;1.37;;;0.80;;
3329;SDS011;1677;49.576;10.990;2023-03-14T11:00:18;2.23;;;0.93;;
3329;SDS011;1677;49.576;10.990;2023-03-14T11:08:11;1.10;;;0.60;;
3329;SDS011;1677;49.576;10.990;2023-03-14T11:10:45;1.07;;;0.77;;
3329;SDS011;1677;49.576;10.990;2023-03-14T11:13:36;1.00;;;0.70;;
3329;SDS011;1677;49.576;10.990;2023-03-14T11:16:14;2.50;;;1.43;;
3329;SDS011;1677;49.576;10.990;2023-03-14T11:18:45;1.03;;;0.60;;
3329;SDS011;1677;49.576;10.990;2023-03-14T11:27:44;2.20;;;0.70;;
3329;SDS011;1677;49.576;10.990;2023-03-14T11:33:14;3.70;;;1.43;;
3329;SDS011;1677;49.576;10.990;2023-03-14T11:36:08;1.10;;;0.50;;
3329;SDS011;1677;49.576;10.990;2023-03-14T11:41:09;0.70;;;0.50;;
3329;SDS011;1677;49.576;10.990;2023-03-14T11:43:39;0.80;;;0.50;;
3329;SDS011;1677;49.576;10.990;2023-03-14T11:46:50;1.93;;;0.70;;
3329;SDS011;1677;49.576;10.990;2023-03-14T11:51:47;1.40;;;0.50;;
3329;SDS011;1677;49.576;10.990;2023-03-14T11:54:35;1.13;;;0.50;;
3329;SDS011;1677;49.576;10.990;2023-03-14T11:57:11;2.00;;;0.60;;
3329;SDS011;1677;49.576;10.990;2023-03-14T12:07:29;1.00;;;0.60;;
3329;SDS011;1677;49.576;10.990;2023-03-14T12:10:02;1.23;;;0.70;;
3329;SDS011;1677;49.576;10.990;2023-03-14T12:12:28;0.80;;;0.50;;
3329;SDS011;1677;49.576;10.990;2023-03-14T12:14:59;2.00;;;0.50;;
3329;SDS011;1677;49.576;10.990;2023-03-14T12:17:39;2.47;;;0.90;;
3329;SDS011;1677;49.576;10.990;2023-03-14T12:22:43;0.90;;;0.60;;
3329;SDS011;1677;49.576;10.990;2023-03-14T12:30:24;1.37;;;0.90;;
3329;SDS011;1677;49.576;10.990;2023-03-14T12:35:35;1.10;;;0.60;;
3329;SDS011;1677;49.576;10.990;2023-03-14T12:38:21;1.00;;;0.70;;
3329;SDS011;1677;49.576;10.990;2023-03-14T12:43:37;1.03;;;0.87;;
3329;SDS011;1677;49.576;10.990;2023-03-14T12:48:29;4.60;;;1.00;;
3329;SDS011;1677;49.576;10.990;2023-03-14T12:50:56;2.07;;;1.10;;
3329;SDS011;1677;49.576;10.990;2023-03-14T12:56:28;0.90;;;0.70;;
3329;SDS011;1677;49.576;10.990;2023-03-14T13:01:58;3.20;;;2.07;;
3329;SDS011;1677;49.576;10.990;2023-03-14T13:04:28;1.47;;;0.93;;
3329;SDS011;1677;49.576;10.990;2023-03-14T13:06:58;1.00;;;0.70;;
3329;SDS011;1677;49.576;10.990;2023-03-14T13:12:14;1.10;;;0.87;;
3329;SDS011;1677;49.576;10.990;2023-03-14T13:14:46;1.40;;;0.90;;
3329;SDS011;1677;49.576;10.990;2023-03-14T13:17:14;1.20;;;0.83;;
3329;SDS011;1677;49.576;10.990;2023-03-14T13:19:43;1.20;;;0.87;;
3329;SDS011;1677;49.576;10.990;2023-03-14T13:22:26;1.57;;;0.70;;
3329;SDS011;1677;49.576;10.990;2023-03-14T13:25:04;1.40;;;0.83;;
3329;SDS011;1677;49.576;10.990;2023-03-14T13:27:33;2.27;;;1.00;;
3329;SDS011;1677;49.576;10.990;2023-03-14T13:32:42;2.70;;;0.90;;
3329;SDS011;1677;49.576;10.990;2023-03-14T13:37:43;3.40;;;0.68;;
3329;SDS011;1677;49.576;10.990;2023-03-14T13:40:18;2.50;;;0.87;;
3329;SDS011;1677;49.576;10.990;2023-03-14T13:42:45;2.37;;;1.10;;
3329;SDS011;1677;49.576;10.990;2023-03-14T13:45:12;1.90;;;0.70;;
3329;SDS011;1677;49.576;10.990;2023-03-14T13:47:39;1.55;;;0.80;;
3329;SDS011;1677;49.576;10.990;2023-03-14T13:50:05;3.88;;;0.77;;
3329;SDS011;1677;49.576;10.990;2023-03-14T13:52:40;1.08;;;0.80;;
3329;SDS011;1677;49.576;10.990;2023-03-14T13:55:06;3.00;;;0.80;;
3329;SDS011;1677;49.576;10.990;2023-03-14T13:57:45;2.80;;;0.70;;
3329;SDS011;1677;49.576;10.990;2023-03-14T14:00:17;2.78;;;0.70;;
3329;SDS011;1677;49.576;10.990;2023-03-14T14:02:44;1.33;;;0.90;;
3329;SDS011;1677;49.576;10.990;2023-03-14T14:05:10;2.40;;;0.80;;
3329;SDS011;1677;49.576;10.990;2023-03-14T14:07:37;2.40;;;0.90;;
3329;SDS011;1677;49.576;10.990;2023-03-14T14:10:03;1.52;;;0.80;;
3329;SDS011;1677;49.576;10.990;2023-03-14T14:12:30;1.20;;;0.88;;
3329;SDS011;1677;49.576;10.990;2023-03-14T14:15:04;1.85;;;0.88;;
3329;SDS011;1677;49.576;10.990;2023-03-14T14:17:55;2.88;;;1.40;;
3329;SDS011;1677;49.576;10.990;2023-03-14T14:20:26;1.10;;;0.70;;
3329;SDS011;1677;49.576;10.990;2023-03-14T14:22:56;2.38;;;1.30;;
3329;SDS011;1677;49.576;10.990;2023-03-14T14:25:23;1.45;;;0.95;;
3329;SDS011;1677;49.576;10.990;2023-03-14T14:27:48;2.70;;;1.37;;
3329;SDS011;1677;49.576;10.990;2023-03-14T14:32:44;0.90;;;0.70;;
3329;SDS011;1677;49.576;10.990;2023-03-14T14:35:24;1.00;;;0.70;;
3329;SDS011;1677;49.576;10.990;2023-03-14T14:37:51;2.10;;;0.70;;
3329;SDS011;1677;49.576;10.990;2023-03-14T14:40:18;2.23;;;1.10;;
3329;SDS011;1677;49.576;10.990;2023-03-14T14:43:01;1.55;;;0.90;;
3329;SDS011;1677;49.576;10.990;2023-03-14T14:45:28;1.30;;;0.55;;
3329;SDS011;1677;49.576;10.990;2023-03-14T14:47:55;1.63;;;0.97;;
3329;SDS011;1677;49.576;10.990;2023-03-14T14:50:31;0.80;;;0.60;;
3329;SDS011;1677;49.576;10.990;2023-03-14T14:52:59;0.90;;;0.70;;
3329;SDS011;1677;49.576;10.990;2023-03-14T14:55:44;0.80;;;0.60;;
3329;SDS011;1677;49.576;10.990;2023-03-14T15:01:10;0.80;;;0.60;;
3329;SDS011;1677;49.576;10.990;2023-03-14T15:04:09;1.95;;;0.80;;
3329;SDS011;1677;49.576;10.990;2023-03-14T15:06:38;1.15;;;0.70;;
3329;SDS011;1677;49.576;10.990;2023-03-14T15:09:04;1.20;;;0.80;;
3329;SDS011;1677;49.576;10.990;2023-03-14T15:11:30;1.20;;;0.70;;
3329;SDS011;1677;49.576;10.990;2023-03-14T15:13:56;1.47;;;0.60;;
3329;SDS011;1677;49.576;10.990;2023-03-14T15:16:22;1.87;;;0.60;;
3329;SDS011;1677;49.576;10.990;2023-03-14T15:18:55;1.10;;;0.70;;
3329;SDS011;1677;49.576;10.990;2023-03-14T15:21:23;1.30;;;0.80;;
3329;SDS011;1677;49.576;10.990;2023-03-14T15:23:50;1.40;;;0.80;;
3329;SDS011;1677;49.576;10.990;2023-03-14T15:26:17;0.93;;;0.80;;
3329;SDS011;1677;49.576;10.990;2023-03-14T15:28:47;1.30;;;1.00;;
3329;SDS011;1677;49.576;10.990;2023-03-14T15:31:14;3.70;;;2.30;;
3329;SDS011;1677;49.576;10.990;2023-03-14T15:33:42;4.20;;;2.08;;
3329;SDS011;1677;49.576;10.990;2023-03-14T15:36:28;1.58;;;1.48;;
3329;SDS011;1677;49.576;10.990;2023-03-14T15:38:56;1.70;;;1.60;;
3329;SDS011;1677;49.576;10.990;2023-03-14T15:41:22;2.55;;;2.35;;
3329;SDS011;1677;49.576;10.990;2023-03-14T15:43:48;2.70;;;1.85;;
3329;SDS011;1677;49.576;10.990;2023-03-14T15:46:14;6.90;;;2.70;;
3329;SDS011;1677;49.576;10.990;2023-03-14T15:48:42;2.10;;;1.90;;
3329;SDS011;1677;49.576;10.990;2023-03-14T15:51:08;3.35;;;1.85;;
3329;SDS011;1677;49.576;10.990;2023-03-14T15:53:33;1.53;;;1.43;;
3329;SDS011;1677;49.576;10.990;2023-03-14T15:56:01;2.50;;;2.17;;
3329;SDS011;1677;49.576;10.990;2023-03-14T15:58:28;2.55;;;1.90;;
3329;SDS011;1677;49.576;10.990;2023-03-14T16:00:53;2.70;;;1.40;;
3329;SDS011;1677;49.576;10.990;2023-03-14T16:03:19;3.27;;;2.40;;
3329;SDS011;1677;49.576;10.990;2023-03-14T16:05:45;2.43;;;1.97;;
3329;SDS011;1677;49.576;10.990;2023-03-14T16:08:10;5.30;;;1.87;;
3329;SDS011;1677;49.576;10.990;2023-03-14T16:10:36;10.33;;;2.50;;
3329;SDS011;1677;49.576;10.990;2023-03-14T16:13:03;2.28;;;1.65;;
3329;SDS011;1677;49.576;10.990;2023-03-14T16:15:29;3.33;;;2.13;;
3329;SDS011;1677;49.576;10.990;2023-03-14T16:17:55;3.03;;;1.77;;